Time;durP1;ratioP1;P1;durP2;ratioP2;P2;SDS_P1;SDS_P2;PMS_P1;PMS_P2;Temp;Humidity;BMP_temperature;BMP_pressure;BME280_temperature;BME280_humidity;BME280_pressure;Samples;Min_cycle;Max_cycle;Signal;HPM_P1;HPM_P2
2022/06/29 00:00:11;;;;;;;0.90;0.60;;;25.30;79.70;;;;;;5048881;28;20477;-63
2022/06/29 00:02:37;;;;;;;1.10;0.93;;;25.40;73.10;;;;;;5051094;28;20459;-63
2022/06/29 00:05:04;;;;;;;0.60;0.60;;;25.30;75.70;;;;;;5051778;28;20430;-64
2022/06/29 00:07:30;;;;;;;0.73;0.73;;;25.30;77.20;;;;;;5046504;28;20609;-64
2022/06/29 00:09:55;;;;;;;0.63;0.63;;;25.50;80.60;;;;;;5050820;28;20423;-63
2022/06/29 00:12:21;;;;;;;0.57;0.57;;;;;;;;;;5051295;28;20565;-63
2022/06/29 00:14:47;;;;;;;1.13;0.60;;;25.50;74.80;;;;;;5051239;28;20649;-63
2022/06/29 00:17:13;;;;;;;0.73;0.73;;;24.90;79.30;;;;;;5032080;28;20486;-63
2022/06/29 00:19:39;;;;;;;0.70;0.70;;;25.30;79.60;;;;;;5033465;28;20275;-63
2022/06/29 00:22:06;;;;;;;0.80;0.80;;;25.40;79.70;;;;;;5044654;28;20216;-64
2022/06/29 00:24:32;;;;;;;0.97;0.93;;;25.40;79.40;;;;;;5051355;28;20447;-63
2022/06/29 00:26:59;;;;;;;0.60;0.60;;;25.30;79.80;;;;;;5062557;28;20437;-63
2022/06/29 00:29:24;;;;;;;0.93;0.93;;;25.30;59.80;;;;;;5034645;28;20428;-63
2022/06/29 00:31:50;;;;;;;1.30;0.97;;;25.50;76.50;;;;;;5030647;28;20423;-63
2022/06/29 00:34:16;;;;;;;0.70;0.70;;;25.40;80.80;;;;;;5030976;28;20188;-63
2022/06/29 00:36:41;;;;;;;0.70;0.67;;;25.50;79.70;;;;;;5047468;28;20321;-64
2022/06/29 00:39:08;;;;;;;1.27;0.80;;;25.20;80.40;;;;;;5032068;28;20420;-64
2022/06/29 00:41:41;;;;;;;0.60;0.60;;;25.30;59.10;;;;;;5041848;28;20250;-63
2022/06/29 00:44:09;;;;;;;0.70;0.70;;;25.20;79.60;;;;;;5030465;28;20440;-63
2022/06/29 00:46:46;;;;;;;0.70;0.70;;;25.40;79.80;;;;;;5030539;28;20446;-63
2022/06/29 00:49:14;;;;;;;0.63;0.63;;;25.40;79.40;;;;;;5039040;28;20518;-64
2022/06/29 00:51:42;;;;;;;0.70;0.53;;;24.90;78.80;;;;;;5029848;28;20420;-63
2022/06/29 00:54:09;;;;;;;0.57;0.50;;;25.20;79.50;;;;;;5030133;28;20932;-63
2022/06/29 00:56:35;;;;;;;0.97;0.97;;;25.30;79.10;;;;;;5029954;28;20459;-63
2022/06/29 00:59:04;;;;;;;0.67;0.67;;;25.20;79.30;;;;;;5046628;28;20445;-62
2022/06/29 01:01:31;;;;;;;0.80;0.60;;;25.40;79.20;;;;;;5034069;28;20463;-63
2022/06/29 01:03:56;;;;;;;1.10;0.70;;;25.20;76.60;;;;;;5049918;28;20430;-63
2022/06/29 01:06:23;;;;;;;0.80;0.70;;;;;;;;;;5049995;28;20453;-64
2022/06/29 01:08:49;;;;;;;0.60;0.60;;;25.40;80.00;;;;;;5044577;28;20482;-64
2022/06/29 01:11:14;;;;;;;0.60;0.60;;;25.50;74.80;;;;;;5044967;28;20554;-63
2022/06/29 01:13:44;;;;;;;0.63;0.63;;;25.20;77.70;;;;;;5049640;28;20262;-63
2022/06/29 01:16:10;;;;;;;0.70;0.70;;;25.20;79.00;;;;;;5038180;28;20703;-63
2022/06/29 01:18:36;;;;;;;0.60;0.60;;;28.00;82.10;;;;;;5029868;28;20503;-63
2022/06/29 01:21:08;;;;;;;0.70;0.70;;;25.20;79.60;;;;;;5042233;28;20267;-63
2022/06/29 01:23:34;;;;;;;0.60;0.60;;;25.30;79.90;;;;;;5040009;28;20427;-63
2022/06/29 01:26:04;;;;;;;0.60;0.60;;;25.20;79.50;;;;;;5051164;28;20494;-63
2022/06/29 01:28:31;;;;;;;0.90;0.60;;;25.20;76.40;;;;;;5029518;28;20173;-63
2022/06/29 01:30:57;;;;;;;0.60;0.60;;;25.40;74.60;;;;;;5029716;28;20423;-63
2022/06/29 01:33:23;;;;;;;0.77;0.70;;;25.40;79.40;;;;;;5029414;28;20620;-63
2022/06/29 01:35:48;;;;;;;1.00;0.90;;;25.30;74.50;;;;;;5029589;28;20493;-63
2022/06/29 01:38:14;;;;;;;1.00;0.70;;;25.20;79.60;;;;;;5029462;28;20181;-63
2022/06/29 01:40:39;;;;;;;0.60;0.60;;;25.20;80.20;;;;;;5029210;28;20185;-63
2022/06/29 01:43:05;;;;;;;0.50;0.50;;;25.30;75.10;;;;;;5029525;28;20697;-63
2022/06/29 01:45:30;;;;;;;0.60;0.60;;;24.90;79.90;;;;;;5039780;28;20633;-63
2022/06/29 01:47:56;;;;;;;0.70;0.60;;;25.00;79.30;;;;;;5049289;28;20184;-63
2022/06/29 01:50:22;;;;;;;0.80;0.80;;;25.10;76.50;;;;;;5036153;28;20268;-64
2022/06/29 01:52:47;;;;;;;0.63;0.63;;;25.30;59.40;;;;;;5029120;28;20479;-63
2022/06/29 01:55:13;;;;;;;0.70;0.70;;;25.30;79.60;;;;;;5029396;28;20173;-63
2022/06/29 01:57:39;;;;;;;1.80;0.70;;;25.10;79.60;;;;;;5029270;28;20201;-63
2022/06/29 02:00:05;;;;;;;0.60;0.60;;;25.40;79.60;;;;;;5029741;28;20264;-63
2022/06/29 02:02:30;;;;;;;0.70;0.50;;;25.30;74.60;;;;;;5029495;28;20185;-63
2022/06/29 02:04:56;;;;;;;1.00;0.50;;;25.40;75.80;;;;;;5029745;28;20422;-63
2022/06/29 02:07:21;;;;;;;0.87;0.87;;;25.30;80.00;;;;;;5030915;28;20603;-63
2022/06/29 02:09:47;;;;;;;0.60;0.60;;;25.40;74.50;;;;;;5036040;28;20188;-63
2022/06/29 02:12:12;;;;;;;1.67;0.77;;;25.30;79.30;;;;;;5048235;28;20251;-63
2022/06/29 02:14:38;;;;;;;0.73;0.70;;;25.30;79.80;;;;;;5049096;28;20172;-64
2022/06/29 02:17:04;;;;;;;1.20;0.70;;;25.20;74.20;;;;;;5048826;28;20214;-63
2022/06/29 02:19:29;;;;;;;0.50;0.50;;;25.30;79.50;;;;;;5043477;28;20211;-63
2022/06/29 02:21:55;;;;;;;0.60;0.60;;;25.20;79.90;;;;;;5039083;28;20287;-63
2022/06/29 02:24:20;;;;;;;0.80;0.80;;;25.30;59.90;;;;;;5049687;28;20621;-62
2022/06/29 02:26:46;;;;;;;0.50;0.50;;;25.30;79.60;;;;;;5058953;28;20711;-62
2022/06/29 02:29:11;;;;;;;0.63;0.63;;;25.10;80.30;;;;;;5066736;28;20205;-63
2022/06/29 02:37:05;;;;;;;0.77;0.60;;;25.40;79.40;;;;;;5028166;28;20521;-64
2022/06/29 02:39:31;;;;;;;0.63;0.63;;;25.20;79.10;;;;;;5033313;28;20426;-63
2022/06/29 02:41:56;;;;;;;0.93;0.93;;;25.20;79.20;;;;;;5048830;28;20233;-63
2022/06/29 02:44:22;;;;;;;0.70;0.60;;;25.70;74.80;;;;;;5048945;28;20180;-63
2022/06/29 02:46:47;;;;;;;0.50;0.50;;;25.40;80.10;;;;;;5049018;28;20169;-63
2022/06/29 02:49:13;;;;;;;0.60;0.50;;;25.20;79.80;;;;;;5046929;28;20277;-64
2022/06/29 02:51:38;;;;;;;0.50;0.50;;;25.70;81.90;;;;;;5028835;28;20284;-63
2022/06/29 02:54:04;;;;;;;0.70;0.70;;;25.30;80.50;;;;;;5028912;28;20344;-63
2022/06/29 02:56:31;;;;;;;0.63;0.63;;;23.20;79.10;;;;;;5029133;28;20219;-63
2022/06/29 02:58:56;;;;;;;0.80;0.80;;;25.00;79.30;;;;;;5032213;28;20176;-63
2022/06/29 03:01:22;;;;;;;0.60;0.60;;;25.30;75.90;;;;;;5050589;28;20422;-63
2022/06/29 03:03:47;;;;;;;0.70;0.60;;;25.30;80.70;;;;;;5052503;28;20191;-63
2022/06/29 03:06:13;;;;;;;0.80;0.80;;;25.30;80.10;;;;;;5053225;28;20184;-63
2022/06/29 03:08:39;;;;;;;0.90;0.80;;;25.20;79.90;;;;;;5051926;28;20177;-63
2022/06/29 03:11:04;;;;;;;0.60;0.50;;;25.30;80.10;;;;;;5052518;28;20266;-63
2022/06/29 03:13:30;;;;;;;2.03;1.17;;;25.20;79.30;;;;;;5052671;28;20223;-63
2022/06/29 03:15:56;;;;;;;0.80;0.80;;;25.20;79.20;;;;;;5046726;28;20318;-63
2022/06/29 03:18:21;;;;;;;0.77;0.77;;;25.10;74.70;;;;;;5036463;28;20184;-63
2022/06/29 03:20:47;;;;;;;0.90;0.90;;;27.60;82.20;;;;;;5037474;28;20671;-63
2022/06/29 03:23:12;;;;;;;1.23;0.93;;;25.10;60.10;;;;;;5037202;28;20658;-63
2022/06/29 03:25:38;;;;;;;0.90;0.70;;;25.10;74.80;;;;;;5032293;28;20185;-64
2022/06/29 03:28:04;;;;;;;0.50;0.50;;;25.30;80.00;;;;;;5050718;28;20180;-63
2022/06/29 03:30:29;;;;;;;0.67;0.67;;;25.30;74.90;;;;;;5050885;28;20179;-63
2022/06/29 03:32:55;;;;;;;0.80;0.80;;;25.30;79.60;;;;;;5048487;28;20282;-63
2022/06/29 03:35:21;;;;;;;0.60;0.60;;;25.10;74.70;;;;;;5050031;28;20222;-63
2022/06/29 03:37:46;;;;;;;0.60;0.60;;;25.10;74.70;;;;;;5051753;28;20680;-63
2022/06/29 03:40:12;;;;;;;0.80;0.77;;;25.30;80.60;;;;;;5051564;28;20407;-64
2022/06/29 03:42:38;;;;;;;0.83;0.83;;;25.40;80.60;;;;;;5048249;28;20665;-63
2022/06/29 03:45:04;;;;;;;0.70;0.70;;;25.30;80.70;;;;;;5031453;28;20173;-64
2022/06/29 03:47:29;;;;;;;0.70;0.70;;;25.30;60.60;;;;;;5030444;28;20173;-63
2022/06/29 03:49:55;;;;;;;0.60;0.60;;;25.30;80.00;;;;;;5038050;28;20482;-64
2022/06/29 03:52:20;;;;;;;0.80;0.80;;;25.00;80.20;;;;;;5035545;28;20201;-63
2022/06/29 03:54:46;;;;;;;0.90;0.90;;;25.20;80.80;;;;;;5031421;28;20535;-63
2022/06/29 03:57:11;;;;;;;1.17;0.83;;;25.30;81.20;;;;;;5033554;28;20254;-63
2022/06/29 03:59:37;;;;;;;0.53;0.53;;;25.20;60.60;;;;;;5050239;28;20353;-64
2022/06/29 04:02:03;;;;;;;0.70;0.70;;;25.30;79.80;;;;;;5042427;28;20235;-63
2022/06/29 04:04:28;;;;;;;0.87;0.87;;;25.00;75.00;;;;;;5050470;28;20285;-63
2022/06/29 04:06:54;;;;;;;0.70;0.70;;;25.10;79.70;;;;;;5050873;28;20668;-63
2022/06/29 04:09:19;;;;;;;1.07;0.97;;;25.10;80.80;;;;;;5046267;28;20188;-63
2022/06/29 04:11:54;;;;;;;1.13;1.07;;;25.30;78.90;;;;;;5050787;28;20212;-63
2022/06/29 04:14:23;;;;;;;0.77;0.77;;;25.10;79.60;;;;;;5050897;28;20171;-62
2022/06/29 04:16:49;;;;;;;0.70;0.70;;;25.20;60.70;;;;;;5036823;28;20645;-62
2022/06/29 04:19:15;;;;;;;0.83;0.70;;;25.10;75.40;;;;;;5032528;28;20955;-61
2022/06/29 04:21:40;;;;;;;0.87;0.87;;;25.30;80.40;;;;;;5042155;28;20454;-62
2022/06/29 04:24:06;;;;;;;0.80;0.80;;;25.10;80.50;;;;;;5051597;28;20695;-62
2022/06/29 04:26:32;;;;;;;0.97;0.97;;;;;;;;;;5063389;28;20191;-63
2022/06/29 04:28:58;;;;;;;0.90;0.90;;;25.20;80.50;;;;;;5056131;28;20418;-62
2022/06/29 04:31:24;;;;;;;0.80;0.77;;;25.00;75.20;;;;;;5070873;28;20426;-62
2022/06/29 04:33:49;;;;;;;0.80;0.80;;;24.70;80.30;;;;;;5070955;28;20804;-62
2022/06/29 04:36:15;;;;;;;0.70;0.60;;;25.30;75.40;;;;;;5067371;28;20264;-62
2022/06/29 04:38:40;;;;;;;0.63;0.63;;;25.40;80.50;;;;;;5047126;28;20207;-62
2022/06/29 04:41:06;;;;;;;0.60;0.60;;;25.30;78.50;;;;;;5044873;28;20214;-63
2022/06/29 04:43:32;;;;;;;0.67;0.67;;;25.20;76.40;;;;;;5048296;28;20254;-62
2022/06/29 04:48:43;;;;;;;0.60;0.60;;;24.60;75.10;;;;;;5051428;28;20234;-62
2022/06/29 04:51:09;;;;;;;0.90;0.90;;;25.10;80.40;;;;;;5050851;28;20526;-62
2022/06/29 04:53:34;;;;;;;0.63;0.63;;;25.20;81.20;;;;;;5050557;28;20480;-63
2022/06/29 04:56:01;;;;;;;0.60;0.60;;;25.50;63.50;;;;;;5068063;28;20643;-62
2022/06/29 04:58:26;;;;;;;2.40;0.80;;;25.10;81.10;;;;;;5070710;28;20179;-62
2022/06/29 05:00:52;;;;;;;2.73;0.60;;;25.20;61.20;;;;;;5070965;28;20719;-62
2022/06/29 05:03:17;;;;;;;0.70;0.70;;;25.10;75.50;;;;;;5070864;28;20223;-62
2022/06/29 05:05:43;;;;;;;0.60;0.60;;;24.70;80.60;;;;;;5060052;28;20182;-62
2022/06/29 05:08:09;;;;;;;0.60;0.60;;;25.10;80.80;;;;;;5051386;28;20200;-62
2022/06/29 05:10:35;;;;;;;0.70;0.70;;;25.20;75.30;;;;;;5046234;28;20188;-62
2022/06/29 05:13:00;;;;;;;0.70;0.70;;;25.20;81.20;;;;;;5040349;28;20287;-62
2022/06/29 05:15:26;;;;;;;0.80;0.80;;;25.20;80.30;;;;;;5032521;28;20207;-62
2022/06/29 05:17:51;;;;;;;0.90;0.90;;;25.00;60.90;;;;;;5039770;28;20235;-62
2022/06/29 05:20:20;;;;;;;0.70;0.70;;;25.20;75.70;;;;;;5049077;28;20669;-61
2022/06/29 05:22:46;;;;;;;0.70;0.70;;;;;;;;;;5031606;28;20228;-61
2022/06/29 05:25:12;;;;;;;0.60;0.60;;;25.20;80.80;;;;;;5035286;28;20758;-62
2022/06/29 05:27:37;;;;;;;1.00;1.00;;;25.40;81.10;;;;;;5035521;28;20424;-62
2022/06/29 05:30:03;;;;;;;1.00;1.00;;;25.10;63.10;;;;;;5033173;28;20189;-61
2022/06/29 05:32:29;;;;;;;1.00;0.90;;;25.10;81.30;;;;;;5033743;28;20192;-61
2022/06/29 05:34:54;;;;;;;1.30;1.20;;;25.20;80.40;;;;;;5029781;28;20743;-63
2022/06/29 05:37:20;;;;;;;2.50;0.80;;;25.00;75.50;;;;;;5029596;28;20610;-62
2022/06/29 05:39:46;;;;;;;0.70;0.70;;;25.40;81.10;;;;;;5029544;28;20259;-63
2022/06/29 05:42:12;;;;;;;0.80;0.80;;;25.20;81.40;;;;;;5031650;28;20777;-63
2022/06/29 05:44:38;;;;;;;2.80;0.80;;;25.00;75.90;;;;;;5031111;28;20186;-62
2022/06/29 05:47:05;;;;;;;0.63;0.63;;;25.20;81.40;;;;;;5029718;28;20191;-62
2022/06/29 05:49:30;;;;;;;1.10;0.70;;;25.20;81.10;;;;;;5029504;28;20419;-62
2022/06/29 05:51:56;;;;;;;1.17;1.17;;;25.40;75.90;;;;;;5029053;28;20420;-63
2022/06/29 05:54:21;;;;;;;0.90;0.90;;;25.30;75.90;;;;;;5029365;28;20193;-62
2022/06/29 05:56:47;;;;;;;0.70;0.70;;;25.40;75.90;;;;;;5029154;28;20201;-63
2022/06/29 05:59:13;;;;;;;0.90;0.90;;;24.90;76.70;;;;;;5028986;28;20177;-62
2022/06/29 06:01:38;;;;;;;1.07;1.07;;;25.00;75.60;;;;;;5028945;28;20192;-63
2022/06/29 06:04:04;;;;;;;0.80;0.80;;;25.20;75.70;;;;;;5029057;28;20189;-62
2022/06/29 06:06:30;;;;;;;1.10;1.10;;;25.30;75.80;;;;;;5028992;28;20712;-61
2022/06/29 06:08:56;;;;;;;0.90;0.90;;;25.20;80.80;;;;;;5032327;28;20742;-62
2022/06/29 06:11:21;;;;;;;0.90;0.90;;;25.20;80.40;;;;;;5048260;28;20195;-63
2022/06/29 06:13:47;;;;;;;1.80;0.97;;;25.40;75.80;;;;;;5049301;28;20301;-63
2022/06/29 06:16:12;;;;;;;1.10;1.10;;;25.20;75.50;;;;;;5049234;28;20199;-61
2022/06/29 06:18:39;;;;;;;0.70;0.70;;;25.10;80.30;;;;;;5041201;28;20203;-61
2022/06/29 06:21:05;;;;;;;0.70;0.70;;;;;;;;;;5031183;28;20278;-61
2022/06/29 06:23:30;;;;;;;1.10;1.10;;;25.40;81.10;;;;;;5031137;28;20439;-61
2022/06/29 06:25:56;;;;;;;1.10;1.10;;;25.20;81.10;;;;;;5032670;28;20425;-63
2022/06/29 06:28:21;;;;;;;0.90;0.90;;;24.60;77.90;;;;;;5030493;28;20267;-62
2022/06/29 06:30:47;;;;;;;0.87;0.87;;;25.10;81.40;;;;;;5035951;28;20212;-63
2022/06/29 06:33:12;;;;;;;1.20;1.20;;;25.20;76.00;;;;;;5030699;28;20200;-62
2022/06/29 06:35:38;;;;;;;1.23;1.23;;;25.10;75.80;;;;;;5044392;28;20188;-62
2022/06/29 06:38:04;;;;;;;7.00;1.30;;;25.00;61.90;;;;;;5052650;28;20208;-62
2022/06/29 06:43:14;;;;;;;1.13;1.03;;;;;;;;;;5040955;28;20211;-61
2022/06/29 06:45:40;;;;;;;0.90;0.90;;;25.10;75.90;;;;;;5036945;28;20470;-62
2022/06/29 06:48:06;;;;;;;1.47;1.40;;;25.40;78.00;;;;;;5042322;28;20609;-63
2022/06/29 06:50:32;;;;;;;1.10;1.10;;;25.30;76.20;;;;;;5046295;28;20191;-62
2022/06/29 06:52:57;;;;;;;1.00;1.00;;;25.30;78.30;;;;;;5052434;28;20549;-62
2022/06/29 06:55:23;;;;;;;0.90;0.90;;;25.20;82.10;;;;;;5053113;28;20180;-63
2022/06/29 06:57:48;;;;;;;1.03;1.00;;;25.10;81.40;;;;;;5047003;28;20578;-62
2022/06/29 07:00:14;;;;;;;1.40;1.30;;;25.30;76.60;;;;;;5046063;28;20640;-62
2022/06/29 07:02:40;;;;;;;1.20;1.10;;;25.40;78.00;;;;;;5043459;28;20682;-62
2022/06/29 07:05:06;;;;;;;1.10;1.10;;;25.10;79.90;;;;;;5042304;28;20189;-61
2022/06/29 07:07:32;;;;;;;1.17;1.17;;;25.30;81.60;;;;;;5043208;28;20999;-63
2022/06/29 07:09:58;;;;;;;4.80;1.40;;;25.40;82.80;;;;;;5044990;28;20207;-62
2022/06/29 07:12:23;;;;;;;0.70;0.70;;;25.20;79.10;;;;;;5041668;28;21415;-62
2022/06/29 07:14:49;;;;;;;1.30;1.20;;;25.20;82.80;;;;;;5041921;28;20196;-62
2022/06/29 07:17:14;;;;;;;1.03;1.03;;;25.10;76.90;;;;;;5040272;28;20227;-62
2022/06/29 07:19:40;;;;;;;0.90;0.90;;;25.10;77.00;;;;;;5042387;28;20188;-62
2022/06/29 07:22:05;;;;;;;3.43;1.27;;;25.20;82.60;;;;;;5042097;28;20200;-62
2022/06/29 07:24:32;;;;;;;1.17;1.13;;;25.20;82.80;;;;;;5042314;28;20181;-62
2022/06/29 07:26:57;;;;;;;1.00;1.00;;;25.20;82.40;;;;;;5044031;28;20188;-62
2022/06/29 07:29:23;;;;;;;1.53;1.40;;;25.40;83.80;;;;;;5044056;28;20546;-62
2022/06/29 07:31:48;;;;;;;1.27;0.93;;;25.20;79.90;;;;;;5049807;28;20192;-61
2022/06/29 07:34:14;;;;;;;1.10;1.10;;;25.40;82.10;;;;;;5043669;28;20195;-62
2022/06/29 07:36:39;;;;;;;1.33;1.33;;;25.40;77.20;;;;;;5049816;28;20204;-61
2022/06/29 07:39:05;;;;;;;2.50;2.00;;;25.40;77.40;;;;;;5051992;28;20226;-62
2022/06/29 07:41:31;;;;;;;1.30;1.20;;;25.30;82.40;;;;;;5052205;28;20185;-62
2022/06/29 07:43:56;;;;;;;1.20;1.20;;;25.10;77.30;;;;;;5052383;28;20357;-62
2022/06/29 07:46:22;;;;;;;1.30;1.30;;;25.30;77.10;;;;;;5052468;28;20195;-62
2022/06/29 07:48:48;;;;;;;0.87;0.87;;;25.00;82.20;;;;;;5050608;28;20199;-61
2022/06/29 07:51:13;;;;;;;1.00;1.00;;;25.30;82.40;;;;;;5048003;28;20267;-62
2022/06/29 07:53:39;;;;;;;1.07;1.07;;;25.00;82.90;;;;;;5038294;28;20307;-62
2022/06/29 07:56:05;;;;;;;1.27;1.27;;;25.20;77.20;;;;;;5045900;28;20200;-63
2022/06/29 07:58:31;;;;;;;1.97;1.53;;;25.40;77.30;;;;;;5039829;28;20723;-61
2022/06/29 08:00:57;;;;;;;1.00;1.00;;;25.00;82.80;;;;;;5037031;28;20438;-62
2022/06/29 08:03:22;;;;;;;0.90;0.90;;;25.20;82.00;;;;;;5042627;28;20668;-63
2022/06/29 08:05:48;;;;;;;1.20;1.20;;;25.20;78.40;;;;;;5044774;28;20434;-61
2022/06/29 08:08:14;;;;;;;0.90;0.90;;;25.30;81.70;;;;;;5040193;28;20263;-63
2022/06/29 08:10:40;;;;;;;1.70;1.60;;;;;;;;;;5042028;28;20407;-62
2022/06/29 08:13:06;;;;;;;0.80;0.80;;;25.30;81.40;;;;;;5041383;28;20205;-62
2022/06/29 08:15:31;;;;;;;1.17;1.17;;;25.10;72.50;;;;;;5039928;28;20404;-62
2022/06/29 08:17:57;;;;;;;1.10;1.10;;;25.20;77.20;;;;;;5041942;28;20226;-62
2022/06/29 08:20:23;;;;;;;1.40;1.27;;;25.00;83.10;;;;;;5040985;28;20232;-62
2022/06/29 08:22:49;;;;;;;0.80;0.80;;;25.20;82.30;;;;;;5040200;28;20513;-62
2022/06/29 08:25:15;;;;;;;1.10;1.10;;;25.30;82.30;;;;;;5042816;28;20465;-62
2022/06/29 08:27:41;;;;;;;0.93;0.93;;;25.20;82.90;;;;;;5045136;28;20249;-62
2022/06/29 08:30:08;;;;;;;1.20;1.20;;;25.30;82.10;;;;;;5040960;28;20177;-62
2022/06/29 08:32:34;;;;;;;1.07;0.97;;;25.30;70.20;;;;;;5038147;28;20533;-62
2022/06/29 08:35:01;;;;;;;0.90;0.80;;;25.40;82.50;;;;;;5043086;28;20506;-63
2022/06/29 08:37:30;;;;;;;1.40;1.27;;;25.40;81.60;;;;;;5042912;28;20244;-62
2022/06/29 08:39:55;;;;;;;1.20;1.20;;;25.10;82.00;;;;;;5039812;28;20413;-63
2022/06/29 08:42:22;;;;;;;1.43;1.03;;;25.40;62.70;;;;;;5041196;28;20430;-62
2022/06/29 08:44:49;;;;;;;1.00;1.00;;;25.20;81.90;;;;;;5041633;28;20263;-63
2022/06/29 08:47:15;;;;;;;1.00;1.00;;;25.20;82.10;;;;;;5039528;28;20411;-61
2022/06/29 08:49:43;;;;;;;1.20;1.10;;;;;;;;;;5045265;28;20419;-62
2022/06/29 08:52:10;;;;;;;1.20;1.10;;;25.10;81.80;;;;;;5048632;28;20442;-62
2022/06/29 08:54:40;;;;;;;0.90;0.90;;;24.80;82.60;;;;;;5050343;28;20748;-63
2022/06/29 08:57:06;;;;;;;1.00;1.00;;;25.10;62.20;;;;;;5049064;28;20478;-63
2022/06/29 08:59:35;;;;;;;1.30;1.30;;;25.30;82.00;;;;;;5036103;28;20438;-62
2022/06/29 09:02:01;;;;;;;1.17;1.17;;;25.30;76.50;;;;;;5035698;28;20434;-62
2022/06/29 09:04:28;;;;;;;1.10;1.10;;;25.10;76.20;;;;;;5039802;28;20423;-62
2022/06/29 09:06:55;;;;;;;2.20;1.13;;;25.20;80.70;;;;;;5042910;28;20464;-61
2022/06/29 09:09:21;;;;;;;1.00;1.00;;;25.30;81.00;;;;;;5033872;28;20416;-63
2022/06/29 09:11:50;;;;;;;0.87;0.87;;;25.20;76.40;;;;;;5047476;28;20422;-62
2022/06/29 09:14:19;;;;;;;1.40;1.30;;;25.40;82.30;;;;;;5050318;28;20512;-62
2022/06/29 09:17:04;;;;;;;1.37;0.83;;;25.20;82.30;;;;;;5050089;28;20454;-62
2022/06/29 09:19:36;;;;;;;1.13;1.13;;;25.20;81.40;;;;;;5050019;28;20405;-61
2022/06/29 09:22:01;;;;;;;1.07;1.07;;;25.20;82.10;;;;;;5036999;28;20430;-63
2022/06/29 09:24:34;;;;;;;1.30;1.23;;;25.30;82.20;;;;;;5046200;28;20782;-62
2022/06/29 09:27:13;;;;;;;0.90;0.90;;;25.30;62.20;;;;;;5050722;28;20181;-62
2022/06/29 09:29:41;;;;;;;3.90;0.90;;;25.40;81.90;;;;;;5050278;28;20439;-62
2022/06/29 09:32:14;;;;;;;1.27;1.17;;;25.40;81.00;;;;;;5050104;28;20438;-62
2022/06/29 09:34:50;;;;;;;1.23;1.20;;;25.20;62.10;;;;;;5050369;28;20410;-62
2022/06/29 09:37:19;;;;;;;1.10;1.10;;;25.20;62.10;;;;;;5050361;28;20490;-62
2022/06/29 09:39:52;;;;;;;2.03;1.30;;;25.40;81.90;;;;;;5050122;28;20409;-62
2022/06/29 09:42:23;;;;;;;1.50;1.20;;;25.10;81.40;;;;;;5050040;28;20430;-62
2022/06/29 09:44:49;;;;;;;1.10;1.10;;;25.30;82.80;;;;;;5050040;28;20414;-62
2022/06/29 09:47:16;;;;;;;1.13;1.13;;;25.10;83.00;;;;;;5049821;28;20410;-62
2022/06/29 09:49:59;;;;;;;2.73;1.00;;;25.10;76.70;;;;;;5049731;28;20421;-62
2022/06/29 09:52:25;;;;;;;1.00;1.00;;;25.10;82.50;;;;;;5049568;28;20466;-62
2022/06/29 09:54:56;;;;;;;1.17;1.00;;;25.20;82.50;;;;;;5044338;28;20434;-61
2022/06/29 09:57:28;;;;;;;1.03;1.03;;;25.30;82.00;;;;;;5034536;28;20959;-62
2022/06/29 10:02:50;;;;;;;1.23;1.10;;;25.20;82.10;;;;;;5047147;28;20414;-61
2022/06/29 10:05:18;;;;;;;1.03;1.03;;;25.40;81.50;;;;;;5049340;28;20421;-61
2022/06/29 10:07:55;;;;;;;1.57;1.00;;;25.20;82.20;;;;;;5039438;28;20431;-62
2022/06/29 10:10:25;;;;;;;1.23;1.13;;;25.30;81.50;;;;;;5046661;28;20890;-62
2022/06/29 10:16:21;;;;;;;0.90;0.90;;;25.20;81.50;;;;;;5049567;28;20463;-62
2022/06/29 10:18:47;;;;;;;2.97;1.30;;;;;;;;;;5049691;28;20422;-62
2022/06/29 10:21:17;;;;;;;1.03;1.03;;;25.20;81.90;;;;;;5049497;28;20498;-62
2022/06/29 10:23:53;;;;;;;2.10;1.10;;;24.90;82.70;;;;;;5049074;28;20196;-62
2022/06/29 10:26:28;;;;;;;1.67;1.27;;;25.20;82.70;;;;;;5049175;28;20899;-62
2022/06/29 10:29:19;;;;;;;1.37;1.03;;;25.30;82.60;;;;;;5049070;28;20448;-62
2022/06/29 10:31:51;;;;;;;1.20;1.10;;;25.10;77.30;;;;;;5047057;28;20421;-62
2022/06/29 10:34:31;;;;;;;1.30;1.20;;;25.30;63.10;;;;;;5039331;28;20495;-62
2022/06/29 10:37:02;;;;;;;1.03;1.03;;;25.20;82.10;;;;;;5048528;28;20594;-62
2022/06/29 10:39:47;;;;;;;0.90;0.90;;;25.40;77.20;;;;;;5049011;28;20407;-62
2022/06/29 10:45:16;;;;;;;1.83;1.23;;;25.20;82.60;;;;;;5034102;28;20814;-63
2022/06/29 10:47:47;;;;;;;1.03;1.03;;;25.30;77.40;;;;;;5032384;28;20466;-62
2022/06/29 10:50:20;;;;;;;1.13;1.13;;;25.10;82.00;;;;;;5042253;28;20500;-63
2022/06/29 10:52:50;;;;;;;1.20;1.10;;;25.30;82.00;;;;;;5048369;28;20457;-62
2022/06/29 10:55:19;;;;;;;3.47;1.17;;;25.20;83.10;;;;;;5048946;28;20407;-62
2022/06/29 10:57:46;;;;;;;2.50;1.27;;;25.20;83.20;;;;;;5048771;28;20817;-61
2022/06/29 11:00:32;;;;;;;1.17;1.17;;;25.20;82.20;;;;;;5048761;28;20957;-61
2022/06/29 11:03:07;;;;;;;1.10;1.10;;;25.10;72.40;;;;;;5035133;28;20489;-62
2022/06/29 11:05:36;;;;;;;1.77;1.63;;;25.10;77.00;;;;;;5033846;28;20434;-62
2022/06/29 11:13:31;;;;;;;2.20;1.10;;;25.30;81.70;;;;;;5048749;28;20758;-62
2022/06/29 11:15:58;;;;;;;1.03;1.03;;;25.20;81.60;;;;;;5048797;28;20437;-62
2022/06/29 11:18:31;;;;;;;1.27;1.20;;;25.40;81.90;;;;;;5048669;28;20847;-63
2022/06/29 11:21:02;;;;;;;1.10;1.10;;;25.50;82.50;;;;;;5048532;28;20498;-62
2022/06/29 11:23:29;;;;;;;1.10;1.10;;;25.10;82.90;;;;;;5052016;28;20429;-62
2022/06/29 11:25:55;;;;;;;0.80;0.80;;;25.30;82.20;;;;;;5052191;28;20402;-62
2022/06/29 11:28:23;;;;;;;0.97;0.97;;;25.00;81.90;;;;;;5052970;28;20411;-62
2022/06/29 11:31:06;;;;;;;1.43;1.30;;;25.60;63.10;;;;;;5043177;28;20423;-61
2022/06/29 11:33:39;;;;;;;1.00;1.00;;;25.40;81.50;;;;;;5035372;28;20940;-62
2022/06/29 11:36:10;;;;;;;1.10;1.10;;;25.60;67.10;;;;;;5039546;28;20435;-62
2022/06/29 11:38:40;;;;;;;1.53;1.27;;;25.30;62.90;;;;;;5051418;28;20403;-63
2022/06/29 11:41:14;;;;;;;0.90;0.90;;;25.40;82.30;;;;;;5051249;28;20992;-62
2022/06/29 11:43:40;;;;;;;1.50;1.40;;;25.10;81.80;;;;;;5033671;28;20562;-63
2022/06/29 11:46:17;;;;;;;1.27;1.17;;;25.20;81.00;;;;;;5042893;28;20737;-63
2022/06/29 11:51:46;;;;;;;0.83;0.83;;;25.30;62.60;;;;;;5043015;28;20419;-62
2022/06/29 11:54:12;;;;;;;1.07;1.07;;;25.20;62.50;;;;;;5043065;28;20522;-61
2022/06/29 11:56:37;;;;;;;6.83;1.40;;;25.30;81.60;;;;;;5041024;28;20545;-62
2022/06/29 11:59:05;;;;;;;1.30;1.20;;;25.10;62.40;;;;;;5038079;28;20234;-62
2022/06/29 12:01:30;;;;;;;1.83;1.03;;;25.40;82.50;;;;;;5036819;28;20569;-62
2022/06/29 12:03:57;;;;;;;1.37;1.20;;;25.30;81.10;;;;;;5041113;28;20427;-63
2022/06/29 12:06:25;;;;;;;1.17;1.17;;;25.40;76.70;;;;;;5033207;28;20243;-62
2022/06/29 12:08:52;;;;;;;0.80;0.80;;;25.40;81.20;;;;;;5032230;28;20774;-62
2022/06/29 12:11:18;;;;;;;1.33;1.33;;;25.40;76.50;;;;;;5031685;28;20403;-62
2022/06/29 12:13:44;;;;;;;1.00;1.00;;;25.30;62.40;;;;;;5031847;28;20428;-62
2022/06/29 12:16:10;;;;;;;1.17;1.17;;;25.40;62.60;;;;;;5031649;28;20412;-62
2022/06/29 12:18:36;;;;;;;1.20;1.20;;;25.20;76.40;;;;;;5031409;28;20177;-63
2022/06/29 12:21:02;;;;;;;1.00;1.00;;;25.30;82.80;;;;;;5031493;28;20407;-63
2022/06/29 12:23:28;;;;;;;0.90;0.90;;;25.10;62.30;;;;;;5036591;28;20208;-62
2022/06/29 12:25:55;;;;;;;1.30;1.30;;;25.50;81.90;;;;;;5032288;28;20873;-63
2022/06/29 12:28:21;;;;;;;1.43;1.40;;;25.40;81.70;;;;;;5030858;28;20782;-62
2022/06/29 12:30:47;;;;;;;1.43;1.33;;;25.50;82.60;;;;;;5031198;28;20424;-62
2022/06/29 12:33:13;;;;;;;1.47;1.10;;;25.20;76.40;;;;;;5031277;28;20498;-63
2022/06/29 12:35:39;;;;;;;0.97;0.97;;;25.40;81.20;;;;;;5031272;28;20416;-63
2022/06/29 12:38:05;;;;;;;1.10;1.10;;;25.30;81.10;;;;;;5030472;28;20467;-62
2022/06/29 12:40:31;;;;;;;1.20;1.20;;;25.50;76.70;;;;;;5030448;28;20177;-62
2022/06/29 12:42:57;;;;;;;1.10;1.10;;;25.60;82.10;;;;;;5034486;28;20280;-63
2022/06/29 12:45:24;;;;;;;1.10;1.10;;;25.40;81.10;;;;;;5044651;28;20496;-62
2022/06/29 12:47:50;;;;;;;1.30;1.30;;;25.60;76.60;;;;;;5051574;28;20415;-62
2022/06/29 12:50:16;;;;;;;1.23;1.23;;;25.50;62.50;;;;;;5051579;28;20775;-62
2022/06/29 12:52:46;;;;;;;0.93;0.93;;;25.40;62.30;;;;;;5051076;28;20442;-62
2022/06/29 12:55:13;;;;;;;1.37;1.27;;;25.50;81.20;;;;;;5052026;28;20414;-62
2022/06/29 12:57:39;;;;;;;1.07;1.07;;;25.50;82.70;;;;;;5051209;28;20811;-62
2022/06/29 13:00:05;;;;;;;1.13;1.13;;;25.30;82.40;;;;;;5051209;28;20883;-62
2022/06/29 13:02:31;;;;;;;1.37;1.27;;;25.20;82.40;;;;;;5051189;28;20876;-62
2022/06/29 13:04:57;;;;;;;1.10;1.10;;;25.40;62.20;;;;;;5050968;28;20415;-63
2022/06/29 13:07:29;;;;;;;0.80;0.80;;;25.20;62.10;;;;;;5051135;28;20612;-62
2022/06/29 13:09:56;;;;;;;1.00;1.00;;;25.50;76.40;;;;;;5049255;28;20180;-62
2022/06/29 13:12:22;;;;;;;1.23;1.23;;;25.60;77.90;;;;;;5032152;28;20538;-63
2022/06/29 13:14:48;;;;;;;1.00;0.90;;;25.40;82.90;;;;;;5037704;28;20491;-63
2022/06/29 13:17:15;;;;;;;1.57;1.00;;;25.50;80.90;;;;;;5040788;28;21005;-62